createdAt,value
2022-10-17T00:02:03.330Z,2.30
2022-10-17T00:04:30.168Z,2.10
2022-10-17T00:06:56.907Z,2.05
2022-10-17T00:09:23.511Z,1.60
2022-10-17T00:11:50.246Z,2.30
2022-10-17T00:14:16.914Z,1.63
2022-10-17T00:16:43.597Z,2.13
2022-10-17T00:19:10.393Z,2.70
2022-10-17T00:21:37.048Z,2.00
2022-10-17T00:24:03.951Z,1.90
2022-10-17T00:26:30.553Z,1.80
2022-10-17T00:28:57.297Z,2.13
2022-10-17T00:31:24.995Z,2.00
2022-10-17T00:33:52.370Z,2.22
2022-10-17T00:36:21.960Z,2.28
2022-10-17T00:38:52.843Z,2.20
2022-10-17T00:41:23.693Z,2.20
2022-10-17T00:44:05.845Z,2.00
2022-10-17T00:46:38.144Z,1.95
2022-10-17T00:49:08.180Z,2.47
2022-10-17T00:51:41.612Z,2.03
2022-10-17T00:54:09.660Z,2.50
2022-10-17T00:56:36.874Z,2.42
2022-10-17T00:59:03.747Z,2.10
2022-10-17T01:01:30.723Z,2.35
2022-10-17T01:03:57.543Z,1.90
2022-10-17T01:06:24.130Z,1.90
2022-10-17T01:08:50.739Z,1.60
2022-10-17T01:12:02.751Z,2.00
2022-10-17T01:14:35.563Z,2.25
2022-10-17T01:17:24.407Z,2.08
2022-10-17T01:20:23.188Z,2.05
2022-10-17T01:23:10.744Z,2.30
2022-10-17T01:25:59.010Z,1.85
2022-10-17T01:28:47.070Z,2.10
2022-10-17T01:31:15.792Z,2.25
2022-10-17T01:33:48.577Z,2.53
2022-10-17T01:36:33.707Z,2.83
2022-10-17T01:39:20.656Z,2.03
2022-10-17T01:42:36.161Z,2.20
2022-10-17T01:45:29.980Z,2.25
2022-10-17T01:48:00.690Z,2.35
2022-10-17T01:50:37.888Z,3.33
2022-10-17T01:53:27.504Z,3.30
2022-10-17T01:55:59.147Z,2.70
2022-10-17T01:58:41.595Z,2.30
2022-10-17T02:01:12.030Z,2.45
2022-10-17T02:03:41.287Z,2.38
2022-10-17T02:06:07.989Z,2.50
2022-10-17T02:08:46.472Z,2.13
2022-10-17T02:11:25.425Z,2.22
2022-10-17T02:14:23.955Z,2.53
2022-10-17T02:17:22.972Z,2.47
2022-10-17T02:20:03.495Z,2.30
2022-10-17T02:22:36.927Z,2.15
2022-10-17T02:25:17.159Z,2.17
2022-10-17T02:27:58.873Z,1.80
2022-10-17T02:30:42.168Z,2.17
2022-10-17T02:33:33.088Z,2.08
2022-10-17T02:36:07.224Z,1.90
2022-10-17T02:38:34.852Z,2.10
2022-10-17T02:41:02.162Z,2.35
2022-10-17T02:43:29.377Z,2.22
2022-10-17T02:45:57.099Z,2.08
2022-10-17T02:48:26.628Z,2.10
2022-10-17T02:51:09.759Z,2.30
2022-10-17T02:53:48.146Z,2.40
2022-10-17T02:56:19.043Z,2.45
2022-10-17T02:58:53.276Z,2.35
2022-10-17T03:01:20.739Z,2.15
2022-10-17T03:03:47.476Z,2.20
2022-10-17T03:06:14.115Z,2.25
2022-10-17T03:08:40.756Z,2.10
2022-10-17T03:11:07.668Z,2.45
2022-10-17T03:13:36.346Z,2.60
2022-10-17T03:16:06.459Z,2.10
2022-10-17T03:18:33.084Z,2.10
2022-10-17T03:20:59.729Z,2.22
2022-10-17T03:23:26.355Z,2.03
2022-10-17T03:25:53.072Z,2.20
2022-10-17T03:28:19.715Z,2.30
2022-10-17T03:30:46.425Z,3.38
2022-10-17T03:33:13.017Z,2.08
2022-10-17T03:35:42.392Z,2.78
2022-10-17T03:38:09.254Z,1.95
2022-10-17T03:40:35.920Z,2.20
2022-10-17T03:43:02.640Z,2.33
2022-10-17T03:45:29.377Z,2.47
2022-10-17T03:47:55.965Z,2.72
2022-10-17T03:50:22.553Z,2.70
2022-10-17T03:52:49.627Z,2.60
2022-10-17T03:55:16.893Z,3.40
2022-10-17T03:57:45.520Z,2.90
2022-10-17T04:00:13.172Z,2.60
2022-10-17T04:02:39.792Z,2.58
2022-10-17T04:05:07.189Z,2.40
2022-10-17T04:07:33.952Z,2.80
2022-10-17T04:10:00.620Z,2.47
2022-10-17T04:12:27.522Z,2.65
2022-10-17T04:14:54.624Z,2.80
2022-10-17T04:17:21.455Z,2.70
2022-10-17T04:19:49.839Z,2.75
2022-10-17T04:22:16.532Z,3.08
2022-10-17T04:24:43.261Z,2.90
2022-10-17T04:27:09.916Z,3.03
2022-10-17T04:29:36.555Z,2.40
2022-10-17T04:32:03.468Z,2.30
2022-10-17T04:34:30.156Z,2.00
2022-10-17T04:36:56.800Z,10.35
2022-10-17T04:39:23.532Z,3.20
2022-10-17T04:41:50.207Z,3.53
2022-10-17T04:44:16.812Z,3.00
2022-10-17T04:46:43.541Z,2.92
2022-10-17T04:49:10.112Z,2.83
2022-10-17T04:51:38.280Z,2.47
2022-10-17T04:54:05.337Z,2.40
2022-10-17T04:56:32.011Z,2.70
2022-10-17T04:58:59.628Z,2.70
2022-10-17T05:01:26.803Z,2.88
2022-10-17T05:03:53.779Z,2.90
2022-10-17T05:06:23.379Z,2.70
2022-10-17T05:08:50.478Z,3.33
2022-10-17T05:11:28.339Z,2.92
2022-10-17T05:14:02.271Z,2.80
2022-10-17T05:16:29.798Z,2.80
2022-10-17T05:18:58.436Z,2.42
2022-10-17T05:21:26.470Z,3.15
2022-10-17T05:23:53.728Z,3.97
2022-10-17T05:26:21.139Z,3.83
2022-10-17T05:28:47.864Z,3.72
2022-10-17T05:31:15.037Z,3.75
2022-10-17T05:33:41.768Z,3.53
2022-10-17T05:36:08.644Z,2.70
2022-10-17T05:38:35.569Z,4.45
2022-10-17T05:41:04.696Z,4.30
2022-10-17T05:43:32.208Z,3.90
2022-10-17T05:45:58.823Z,3.72
2022-10-17T05:48:25.502Z,4.00
2022-10-17T05:50:59.522Z,3.67
2022-10-17T05:53:26.812Z,3.83
2022-10-17T05:55:58.084Z,3.05
2022-10-17T05:58:45.508Z,3.28
2022-10-17T06:01:12.934Z,4.10
2022-10-17T06:03:39.912Z,3.92
2022-10-17T06:06:08.764Z,2.95
2022-10-17T06:08:35.531Z,2.60
2022-10-17T06:11:06.009Z,2.80
2022-10-17T06:13:35.946Z,3.22
2022-10-17T06:16:02.543Z,3.28
2022-10-17T06:18:29.215Z,3.88
2022-10-17T06:21:02.961Z,5.18
2022-10-17T06:23:29.877Z,4.70
2022-10-17T06:26:01.769Z,4.30
2022-10-17T06:28:28.397Z,4.13
2022-10-17T06:30:55.434Z,4.00
2022-10-17T06:33:23.299Z,3.78
2022-10-17T06:35:54.838Z,3.90
2022-10-17T06:38:22.247Z,3.80
2022-10-17T06:40:49.208Z,3.83
2022-10-17T06:43:15.788Z,4.15
2022-10-17T06:45:42.672Z,4.63
2022-10-17T06:48:09.518Z,4.15
2022-10-17T06:50:36.195Z,4.85
2022-10-17T06:53:03.252Z,4.70
2022-10-17T06:55:31.681Z,5.18
2022-10-17T06:57:58.595Z,5.50
2022-10-17T07:00:26.683Z,4.35
2022-10-17T07:02:53.359Z,4.72
2022-10-17T07:05:20.367Z,4.30
2022-10-17T07:07:49.681Z,4.85
2022-10-17T07:10:18.734Z,4.50
2022-10-17T07:12:45.935Z,4.35
2022-10-17T07:15:13.074Z,3.90
2022-10-17T07:17:39.951Z,4.00
2022-10-17T07:20:07.354Z,4.30
2022-10-17T07:22:34.028Z,3.70
2022-10-17T07:25:00.635Z,4.18
2022-10-17T07:27:27.515Z,4.43
2022-10-17T07:29:54.304Z,5.13
2022-10-17T07:32:21.016Z,4.00
2022-10-17T07:34:47.745Z,4.28
2022-10-17T07:37:14.375Z,4.65
2022-10-17T07:39:41.021Z,5.53
2022-10-17T07:42:07.777Z,5.13
2022-10-17T07:44:35.485Z,4.45
2022-10-17T07:47:02.527Z,4.65
2022-10-17T07:49:29.416Z,4.32
2022-10-17T07:51:56.063Z,5.20
2022-10-17T07:54:23.004Z,4.22
2022-10-17T07:56:50.576Z,4.38
2022-10-17T07:59:18.579Z,4.85
2022-10-17T08:01:45.275Z,4.10
2022-10-17T08:04:11.869Z,3.90
2022-10-17T08:06:38.577Z,4.72
2022-10-17T08:09:05.326Z,4.40
2022-10-17T08:11:31.957Z,3.58
2022-10-17T08:13:58.645Z,4.53
2022-10-17T08:16:25.259Z,5.55
2022-10-17T08:18:51.868Z,5.32
2022-10-17T08:21:18.459Z,5.85
2022-10-17T08:23:45.210Z,5.05
2022-10-17T08:26:13.529Z,4.10
2022-10-17T08:28:40.695Z,3.97
2022-10-17T08:31:10.908Z,3.70
2022-10-17T08:33:38.275Z,3.60
2022-10-17T08:36:06.025Z,4.32
2022-10-17T08:38:35.517Z,3.85
2022-10-17T08:41:32.086Z,3.20
2022-10-17T08:44:20.440Z,3.53
2022-10-17T08:46:50.064Z,3.70
2022-10-17T08:49:26.013Z,5.47
2022-10-17T08:52:05.289Z,3.15
2022-10-17T08:54:42.956Z,3.17
2022-10-17T08:57:13.561Z,2.50
2022-10-17T08:59:40.329Z,3.00
2022-10-17T09:02:35.945Z,3.00
2022-10-17T09:05:27.340Z,2.97
2022-10-17T09:10:26.767Z,2.63
2022-10-17T09:12:53.343Z,2.58
2022-10-17T09:15:32.127Z,2.78
2022-10-17T09:18:09.107Z,2.58
2022-10-17T09:21:04.735Z,2.83
2022-10-17T09:23:45.214Z,2.90
2022-10-17T09:26:12.472Z,2.70
2022-10-17T09:28:41.559Z,2.97
2022-10-17T09:31:29.148Z,3.22
2022-10-17T09:33:58.065Z,2.53
2022-10-17T09:36:32.596Z,2.45
2022-10-17T09:39:14.821Z,2.72
2022-10-17T09:41:46.588Z,2.40
2022-10-17T09:44:19.981Z,2.33
2022-10-17T09:46:52.246Z,2.00
2022-10-17T09:49:26.207Z,1.90
2022-10-17T09:51:53.148Z,1.80
2022-10-17T09:54:23.973Z,1.92
2022-10-17T09:56:58.024Z,1.83
2022-10-17T09:59:37.958Z,1.80
2022-10-17T10:02:13.774Z,1.80
2022-10-17T10:05:06.426Z,1.70
2022-10-17T10:07:46.256Z,1.75
2022-10-17T10:10:27.771Z,1.75
2022-10-17T10:13:20.284Z,1.67
2022-10-17T10:15:49.848Z,1.63
2022-10-17T10:18:25.638Z,1.63
2022-10-17T10:21:04.276Z,1.88
2022-10-17T10:23:30.923Z,1.85
2022-10-17T10:26:01.380Z,1.73
2022-10-17T10:28:31.078Z,1.70
2022-10-17T10:31:02.288Z,1.83
2022-10-17T10:33:31.584Z,1.65
2022-10-17T10:36:04.518Z,2.00
2022-10-17T10:38:33.625Z,1.95
2022-10-17T10:41:07.348Z,1.90
2022-10-17T10:43:46.812Z,2.40
2022-10-17T10:46:20.837Z,2.08
2022-10-17T10:48:51.860Z,2.10
2022-10-17T10:51:27.057Z,2.25
2022-10-17T10:53:53.691Z,2.40
2022-10-17T10:56:31.550Z,2.38
2022-10-17T10:59:18.940Z,2.28
2022-10-17T11:01:45.524Z,2.72
2022-10-17T11:04:42.531Z,2.30
2022-10-17T11:07:22.536Z,2.00
2022-10-17T11:10:08.246Z,2.30
2022-10-17T11:12:51.204Z,2.50
2022-10-17T11:15:49.011Z,2.38
2022-10-17T11:18:33.220Z,2.15
2022-10-17T11:21:24.220Z,2.47
2022-10-17T11:24:06.770Z,2.67
2022-10-17T11:26:42.690Z,2.67
2022-10-17T11:29:12.011Z,2.72
2022-10-17T11:31:52.380Z,2.40
2022-10-17T11:34:25.888Z,2.20
2022-10-17T11:36:58.622Z,2.50
2022-10-17T11:39:54.918Z,2.17
2022-10-17T11:42:27.598Z,2.28
2022-10-17T11:45:03.070Z,2.40
2022-10-17T11:47:49.947Z,2.47
2022-10-17T11:53:34.619Z,3.38
2022-10-17T11:56:02.113Z,2.30
2022-10-17T11:58:37.738Z,2.60
2022-10-17T12:01:30.561Z,2.65
2022-10-17T12:04:15.840Z,2.30
2022-10-17T12:07:07.130Z,2.40
2022-10-17T12:09:48.937Z,2.10
2022-10-17T12:12:30.053Z,2.50
2022-10-17T12:15:19.470Z,2.40
2022-10-17T12:17:55.134Z,2.58
2022-10-17T12:20:24.864Z,2.10
2022-10-17T12:22:54.785Z,2.20
2022-10-17T12:25:24.849Z,2.30
2022-10-17T12:28:02.648Z,2.30
2022-10-17T12:30:30.209Z,2.33
2022-10-17T12:33:07.338Z,2.70
2022-10-17T12:35:37.178Z,2.38
2022-10-17T12:38:15.208Z,2.60
2022-10-17T12:40:46.326Z,2.20
2022-10-17T12:43:15.850Z,2.30
2022-10-17T12:45:49.923Z,2.50
2022-10-17T12:48:34.766Z,2.35
2022-10-17T12:51:30.794Z,2.38
2022-10-17T12:54:08.647Z,2.20
2022-10-17T12:56:38.087Z,2.05
2022-10-17T12:59:26.040Z,2.47
2022-10-17T13:01:57.592Z,2.25
2022-10-17T13:04:25.686Z,2.55
2022-10-17T13:06:56.288Z,2.33
2022-10-17T13:09:22.949Z,2.47
2022-10-17T13:11:50.367Z,2.25
2022-10-17T13:14:20.676Z,2.40
2022-10-17T13:17:02.684Z,5.30
2022-10-17T13:19:31.612Z,2.50
2022-10-17T13:22:06.513Z,2.10
2022-10-17T13:24:39.065Z,2.10
2022-10-17T13:27:21.708Z,2.28
2022-10-17T13:29:48.552Z,2.67
2022-10-17T13:32:15.391Z,2.42
2022-10-17T13:34:42.199Z,2.30
2022-10-17T13:37:13.064Z,2.55
2022-10-17T13:39:55.576Z,2.50
2022-10-17T13:42:27.828Z,2.50
2022-10-17T13:44:55.800Z,2.30
2022-10-17T13:47:36.648Z,2.60
2022-10-17T13:50:12.741Z,2.72
2022-10-17T13:52:47.992Z,2.88
2022-10-17T13:55:17.924Z,2.90
2022-10-17T13:57:44.670Z,2.60
2022-10-17T14:00:21.857Z,2.72
2022-10-17T14:02:48.873Z,2.83
2022-10-17T14:05:21.099Z,2.60
2022-10-17T14:08:21.647Z,2.53
2022-10-17T14:10:47.859Z,2.70
2022-10-17T14:13:22.975Z,2.58
2022-10-17T14:15:50.704Z,2.70
2022-10-17T14:18:34.871Z,2.28
2022-10-17T14:23:50.717Z,2.25
2022-10-17T14:26:23.357Z,2.25
2022-10-17T14:29:30.343Z,2.50
2022-10-17T14:32:08.601Z,2.30
2022-10-17T14:34:38.884Z,2.33
2022-10-17T14:37:42.858Z,2.80
2022-10-17T14:40:17.796Z,3.13
2022-10-17T14:42:45.420Z,5.22
2022-10-17T14:45:26.100Z,6.50
2022-10-17T14:47:56.397Z,10.30
2022-10-17T14:50:29.533Z,10.55
2022-10-17T14:53:10.865Z,9.70
2022-10-17T14:55:39.886Z,7.40
2022-10-17T14:58:18.038Z,8.57
2022-10-17T15:00:44.742Z,8.15
2022-10-17T15:03:11.839Z,7.72
2022-10-17T15:05:38.620Z,7.30
2022-10-17T15:08:16.332Z,7.70
2022-10-17T15:10:44.590Z,6.28
2022-10-17T15:13:30.408Z,5.10
2022-10-17T15:15:59.148Z,3.70
2022-10-17T15:18:25.898Z,3.15
2022-10-17T15:20:59.809Z,2.97
2022-10-17T15:23:32.034Z,2.83
2022-10-17T15:25:58.612Z,2.42
2022-10-17T15:28:27.304Z,2.75
2022-10-17T15:30:54.114Z,3.00
2022-10-17T15:33:20.748Z,2.63
2022-10-17T15:35:47.943Z,2.67
2022-10-17T15:38:18.101Z,3.05
2022-10-17T15:40:48.803Z,2.30
2022-10-17T15:43:19.684Z,2.63
2022-10-17T15:45:47.176Z,2.72
2022-10-17T15:48:26.581Z,2.17
2022-10-17T15:50:53.570Z,2.38
2022-10-17T15:53:20.362Z,2.30
2022-10-17T15:55:50.018Z,2.17
2022-10-17T15:58:18.895Z,2.47
2022-10-17T16:00:46.420Z,2.35
2022-10-17T16:03:14.146Z,2.40
2022-10-17T16:05:40.841Z,2.53
2022-10-17T16:08:07.624Z,2.00
2022-10-17T16:10:36.956Z,2.47
2022-10-17T16:13:03.604Z,2.35
2022-10-17T16:15:30.248Z,2.53
2022-10-17T16:17:59.634Z,2.72
2022-10-17T16:20:28.473Z,2.35
2022-10-17T16:22:59.863Z,2.80
2022-10-17T16:25:28.900Z,2.85
2022-10-17T16:27:58.748Z,2.70
2022-10-17T16:30:27.909Z,3.00
2022-10-17T16:32:55.471Z,2.95
2022-10-17T16:35:36.509Z,2.60
2022-10-17T16:38:06.334Z,2.85
2022-10-17T16:40:33.341Z,3.20
2022-10-17T16:43:00.016Z,3.25
2022-10-17T16:45:26.688Z,2.88
2022-10-17T16:47:53.565Z,3.10
2022-10-17T16:50:20.613Z,2.88
2022-10-17T16:52:47.322Z,3.15
2022-10-17T16:55:14.035Z,2.90
2022-10-17T17:00:12.000Z,3.00
2022-10-17T17:02:38.844Z,2.83
2022-10-17T17:05:06.027Z,3.03
2022-10-17T17:07:33.658Z,3.08
2022-10-17T17:10:00.345Z,2.85
2022-10-17T17:12:27.113Z,3.03
2022-10-17T17:14:53.704Z,4.13
2022-10-17T17:17:36.959Z,3.60
2022-10-17T17:20:07.401Z,3.80
2022-10-17T17:22:35.063Z,3.50
2022-10-17T17:25:01.629Z,3.35
2022-10-17T17:27:29.156Z,4.38
2022-10-17T17:29:56.032Z,3.63
2022-10-17T17:32:22.766Z,3.30
2022-10-17T17:34:49.578Z,3.30
2022-10-17T17:37:16.365Z,2.70
2022-10-17T17:39:43.024Z,2.53
2022-10-17T17:42:09.634Z,2.80
2022-10-17T17:44:36.294Z,3.15
2022-10-17T17:47:02.948Z,2.88
2022-10-17T17:49:29.594Z,6.90
2022-10-17T17:51:56.439Z,4.88
2022-10-17T17:54:23.056Z,3.85
2022-10-17T17:56:49.648Z,3.67
2022-10-17T17:59:16.364Z,2.83
2022-10-17T18:01:43.268Z,2.90
2022-10-17T18:04:11.845Z,2.50
2022-10-17T18:06:40.173Z,3.95
2022-10-17T18:09:08.207Z,4.95
2022-10-17T18:11:36.032Z,3.25
2022-10-17T18:14:05.926Z,5.55
2022-10-17T18:16:34.451Z,5.72
2022-10-17T18:19:06.841Z,5.28
2022-10-17T18:21:34.340Z,3.40
2022-10-17T18:24:01.225Z,3.45
2022-10-17T18:26:28.429Z,3.78
2022-10-17T18:28:55.379Z,4.85
2022-10-17T18:31:35.226Z,3.00
2022-10-17T18:34:02.745Z,3.13
2022-10-17T18:36:30.603Z,2.90
2022-10-17T18:38:58.958Z,3.10
2022-10-17T18:41:26.816Z,3.10
2022-10-17T18:43:55.340Z,3.08
2022-10-17T18:46:25.393Z,3.40
2022-10-17T18:48:52.334Z,3.10
2022-10-17T18:51:21.543Z,3.58
2022-10-17T18:53:50.976Z,6.28
2022-10-17T18:56:18.486Z,4.35
2022-10-17T18:58:45.876Z,3.45
2022-10-17T19:01:21.857Z,3.22
2022-10-17T19:03:50.341Z,3.28
2022-10-17T19:06:19.420Z,3.40
2022-10-17T19:08:46.993Z,3.85
2022-10-17T19:11:18.114Z,3.53
2022-10-17T19:16:16.509Z,3.70
2022-10-17T19:18:48.587Z,3.57
2022-10-17T19:21:19.258Z,3.20
2022-10-17T19:24:03.424Z,3.63
2022-10-17T19:26:31.351Z,3.40
2022-10-17T19:29:00.396Z,3.22
2022-10-17T19:31:29.603Z,3.70
2022-10-17T19:33:56.464Z,3.45
2022-10-17T19:36:28.818Z,3.67
2022-10-17T19:38:59.000Z,4.10
2022-10-17T19:41:26.086Z,3.85
2022-10-17T19:43:52.970Z,3.58
2022-10-17T19:46:23.933Z,3.92
2022-10-17T19:48:50.961Z,3.88
2022-10-17T19:51:20.088Z,4.00
2022-10-17T19:53:47.454Z,3.72
2022-10-17T19:56:18.408Z,3.50
2022-10-17T19:58:46.867Z,3.50
2022-10-17T20:01:21.790Z,3.38
2022-10-17T20:03:49.464Z,3.42
2022-10-17T20:06:17.157Z,3.20
2022-10-17T20:08:43.883Z,3.40
2022-10-17T20:11:22.350Z,3.50
2022-10-17T20:13:49.297Z,3.60
2022-10-17T20:16:23.638Z,4.10
2022-10-17T20:18:52.005Z,3.65
2022-10-17T20:21:32.388Z,3.60
2022-10-17T20:23:59.968Z,3.50
2022-10-17T20:26:43.100Z,3.60
2022-10-17T20:29:16.393Z,4.18
2022-10-17T20:31:44.955Z,3.78
2022-10-17T20:34:15.050Z,4.10
2022-10-17T20:36:41.986Z,3.95
2022-10-17T20:39:11.263Z,3.80
2022-10-17T20:41:38.471Z,3.67
2022-10-17T20:44:06.781Z,4.18
2022-10-17T20:46:38.510Z,3.58
2022-10-17T20:49:20.614Z,3.05
2022-10-17T20:51:47.252Z,3.50
2022-10-17T20:54:13.944Z,3.72
2022-10-17T20:56:40.663Z,3.67
2022-10-17T20:59:12.266Z,3.58
2022-10-17T21:01:39.098Z,3.58
2022-10-17T21:04:33.390Z,3.80
2022-10-17T21:06:53.469Z,3.50
2022-10-17T21:09:20.863Z,3.97
2022-10-17T21:11:51.080Z,3.90
2022-10-17T21:14:18.496Z,3.97
2022-10-17T21:16:45.437Z,4.00
2022-10-17T21:19:13.142Z,4.28
2022-10-17T21:21:43.915Z,3.72
2022-10-17T21:24:14.018Z,3.90
2022-10-17T21:26:42.423Z,3.50
2022-10-17T21:29:11.000Z,3.47
2022-10-17T21:31:39.323Z,3.58
2022-10-17T21:34:11.665Z,4.80
2022-10-17T21:36:38.648Z,4.82
2022-10-17T21:39:05.719Z,5.07
2022-10-17T21:41:32.690Z,5.10
2022-10-17T21:44:05.422Z,6.13
2022-10-17T21:46:32.243Z,6.53
2022-10-17T21:49:00.269Z,6.38
2022-10-17T21:51:27.891Z,5.72
2022-10-17T21:53:56.548Z,5.78
2022-10-17T21:56:28.575Z,5.60
2022-10-17T21:58:55.876Z,4.85
2022-10-17T22:01:25.921Z,4.28
2022-10-17T22:03:56.022Z,4.40
2022-10-17T22:06:39.715Z,3.88
2022-10-17T22:09:19.566Z,3.53
2022-10-17T22:11:49.463Z,4.10
2022-10-17T22:14:18.066Z,3.60
2022-10-17T22:16:46.434Z,3.70
2022-10-17T22:19:15.438Z,3.20
2022-10-17T22:21:42.117Z,3.78
2022-10-17T22:24:11.872Z,3.72
2022-10-17T22:26:39.632Z,3.90
2022-10-17T22:29:08.133Z,3.97
2022-10-17T22:31:35.895Z,3.47
2022-10-17T22:34:04.413Z,3.80
2022-10-17T22:36:32.383Z,3.97
2022-10-17T22:38:59.265Z,4.55
2022-10-17T22:41:26.000Z,4.57
2022-10-17T22:43:52.650Z,5.10
2022-10-17T22:46:19.324Z,4.65
2022-10-17T22:48:46.195Z,4.68
2022-10-17T22:51:12.967Z,4.60
2022-10-17T22:53:39.720Z,4.72
2022-10-17T22:56:10.503Z,4.57
2022-10-17T22:58:37.656Z,4.47
2022-10-17T23:01:06.064Z,3.85
2022-10-17T23:03:33.664Z,4.10
2022-10-17T23:06:01.004Z,3.75
2022-10-17T23:08:28.283Z,4.43
2022-10-17T23:10:54.944Z,3.70
2022-10-17T23:13:21.970Z,3.78
2022-10-17T23:15:56.455Z,4.50
2022-10-17T23:18:24.813Z,3.53
2022-10-17T23:20:52.244Z,3.92
2022-10-17T23:23:19.435Z,11.02
2022-10-17T23:25:46.494Z,10.70
2022-10-17T23:28:13.151Z,4.50
2022-10-17T23:30:39.825Z,3.95
2022-10-17T23:33:07.195Z,3.78
2022-10-17T23:35:35.320Z,3.45
2022-10-17T23:38:02.310Z,3.92
2022-10-17T23:40:29.130Z,3.88
2022-10-17T23:42:55.752Z,3.90
2022-10-17T23:45:22.674Z,4.07
2022-10-17T23:47:49.466Z,3.75
2022-10-17T23:50:16.460Z,4.25
2022-10-17T23:52:43.200Z,4.50
2022-10-17T23:55:10.743Z,3.97
2022-10-17T23:57:37.446Z,4.50
